createdAt,value
2022-11-14T00:01:09.703Z,95.13
2022-11-14T00:03:01.635Z,95.21
2022-11-14T00:04:51.896Z,94.80
2022-11-14T00:06:42.245Z,95.14
2022-11-14T00:08:32.747Z,95.25
2022-11-14T00:10:23.283Z,95.06
2022-11-14T00:12:13.150Z,94.97
2022-11-14T00:14:03.385Z,94.78
2022-11-14T00:15:56.760Z,94.72
2022-11-14T00:17:47.140Z,95.37
2022-11-14T00:19:37.349Z,95.22
2022-11-14T00:21:27.634Z,95.35
2022-11-14T00:23:18.999Z,95.39
2022-11-14T00:25:09.993Z,95.17
2022-11-14T00:27:00.505Z,95.26
2022-11-14T00:28:50.499Z,95.06
2022-11-14T00:30:40.665Z,95.11
2022-11-14T00:32:31.241Z,95.23
2022-11-14T00:34:21.157Z,95.33
2022-11-14T00:36:11.140Z,95.44
2022-11-14T00:38:01.377Z,95.43
2022-11-14T00:39:51.519Z,95.53
2022-11-14T00:41:42.152Z,95.21
2022-11-14T00:43:32.315Z,95.05
2022-11-14T00:45:22.632Z,94.99
2022-11-14T00:47:12.907Z,95.34
2022-11-14T00:49:03.192Z,95.19
2022-11-14T00:50:53.499Z,95.37
2022-11-14T00:52:43.872Z,95.24
2022-11-14T00:54:33.820Z,95.25
2022-11-14T00:56:24.015Z,95.07
2022-11-14T00:58:13.932Z,95.32
2022-11-14T01:00:05.509Z,94.97
2022-11-14T01:01:57.972Z,94.82
2022-11-14T01:03:50.324Z,94.82
2022-11-14T01:05:46.459Z,95.03
2022-11-14T01:07:36.931Z,94.81
2022-11-14T01:09:27.325Z,94.69
2022-11-14T01:11:19.840Z,94.37
2022-11-14T01:13:10.705Z,94.11
2022-11-14T01:15:00.588Z,94.38
2022-11-14T01:16:50.524Z,94.14
2022-11-14T01:18:41.390Z,93.89
2022-11-14T01:20:31.693Z,93.65
2022-11-14T01:22:22.102Z,94.06
2022-11-14T01:24:12.358Z,94.42
2022-11-14T01:26:08.492Z,94.67
2022-11-14T01:27:58.395Z,94.69
2022-11-14T01:29:48.639Z,94.68
2022-11-14T01:31:39.048Z,94.73
2022-11-14T01:33:29.212Z,94.64
2022-11-14T01:35:19.276Z,94.10
2022-11-14T01:37:09.398Z,93.95
2022-11-14T01:38:59.711Z,94.55
2022-11-14T01:40:49.949Z,94.57
2022-11-14T01:42:40.239Z,94.87
2022-11-14T01:44:45.760Z,94.63
2022-11-14T01:46:38.955Z,95.53
2022-11-14T01:48:50.991Z,95.59
2022-11-14T01:50:40.945Z,96.35
2022-11-14T01:52:39.420Z,95.68
2022-11-14T01:54:37.421Z,95.87
2022-11-14T01:56:36.588Z,95.30
2022-11-14T01:58:28.795Z,95.79
2022-11-14T02:00:19.309Z,96.03
2022-11-14T02:02:15.219Z,95.93
2022-11-14T02:04:08.894Z,95.82
2022-11-14T02:06:03.308Z,96.15
2022-11-14T02:07:53.470Z,95.82
2022-11-14T02:09:46.259Z,96.33
2022-11-14T02:11:40.357Z,96.59
2022-11-14T02:13:30.534Z,96.69
2022-11-14T02:15:20.824Z,96.18
2022-11-14T02:19:21.751Z,95.97
2022-11-14T02:21:11.766Z,96.03
2022-11-14T02:23:02.170Z,96.20
2022-11-14T02:24:52.541Z,96.27
2022-11-14T02:26:42.831Z,96.42
2022-11-14T02:28:33.145Z,96.60
2022-11-14T02:30:23.575Z,96.45
2022-11-14T02:32:13.662Z,95.89
2022-11-14T02:34:03.853Z,96.33
2022-11-14T02:35:54.173Z,96.68
2022-11-14T02:37:44.332Z,96.68
2022-11-14T02:39:34.441Z,96.64
2022-11-14T02:41:24.570Z,96.34
2022-11-14T02:43:14.594Z,96.44
2022-11-14T02:45:04.975Z,96.77
2022-11-14T02:46:54.978Z,96.92
2022-11-14T02:48:45.117Z,97.13
2022-11-14T02:50:35.271Z,96.95
2022-11-14T02:52:25.422Z,96.76
2022-11-14T02:54:15.552Z,96.14
2022-11-14T02:56:05.850Z,96.38
2022-11-14T02:57:56.073Z,96.32
2022-11-14T02:59:46.133Z,96.37
2022-11-14T03:01:36.523Z,96.19
2022-11-14T03:03:26.790Z,96.71
2022-11-14T03:05:17.033Z,96.75
2022-11-14T03:07:07.405Z,96.46
2022-11-14T03:08:57.948Z,96.69
2022-11-14T03:10:47.874Z,96.96
2022-11-14T03:12:38.017Z,96.59
2022-11-14T03:14:31.403Z,96.63
2022-11-14T03:16:21.572Z,96.68
2022-11-14T03:18:11.571Z,96.84
2022-11-14T03:20:01.847Z,96.89
2022-11-14T03:21:52.053Z,96.97
2022-11-14T03:23:42.774Z,96.51
2022-11-14T03:25:33.116Z,96.79
2022-11-14T03:27:23.158Z,96.75
2022-11-14T03:29:13.489Z,96.45
2022-11-14T03:31:05.513Z,96.68
2022-11-14T03:32:56.555Z,96.48
2022-11-14T03:34:46.441Z,96.08
2022-11-14T03:36:36.994Z,95.91
2022-11-14T03:38:27.284Z,95.95
2022-11-14T03:40:17.355Z,95.46
2022-11-14T03:42:07.830Z,95.61
2022-11-14T03:43:57.748Z,95.29
2022-11-14T03:45:48.545Z,95.38
2022-11-14T03:47:38.456Z,95.48
2022-11-14T03:49:28.458Z,96.16
2022-11-14T03:51:18.562Z,94.91
2022-11-14T03:53:08.873Z,95.08
2022-11-14T03:54:59.183Z,95.58
2022-11-14T03:56:49.447Z,96.68
2022-11-14T03:58:39.664Z,96.32
2022-11-14T04:00:29.960Z,96.44
2022-11-14T04:02:20.416Z,96.41
2022-11-14T04:04:12.582Z,95.86
2022-11-14T04:06:03.148Z,95.70
2022-11-14T04:07:53.327Z,95.85
2022-11-14T04:09:44.910Z,95.76
2022-11-14T04:11:34.724Z,95.80
2022-11-14T04:13:24.758Z,95.39
2022-11-14T04:15:15.488Z,95.54
2022-11-14T04:17:05.786Z,96.12
2022-11-14T04:18:56.086Z,95.86
2022-11-14T04:20:46.258Z,95.89
2022-11-14T04:22:36.175Z,95.64
2022-11-14T04:24:26.369Z,95.74
2022-11-14T04:26:16.668Z,95.38
2022-11-14T04:28:07.071Z,94.92
2022-11-14T04:29:57.121Z,94.65
2022-11-14T04:31:47.218Z,94.76
2022-11-14T04:33:37.078Z,94.80
2022-11-14T04:35:27.357Z,94.10
2022-11-14T04:37:17.539Z,94.45
2022-11-14T04:39:08.184Z,94.98
2022-11-14T04:40:58.371Z,94.72
2022-11-14T04:42:48.813Z,95.39
2022-11-14T04:44:38.846Z,95.33
2022-11-14T04:46:29.066Z,95.17
2022-11-14T04:48:19.311Z,95.00
2022-11-14T04:50:10.353Z,95.23
2022-11-14T04:52:00.513Z,94.25
2022-11-14T04:53:50.843Z,94.58
2022-11-14T04:55:41.174Z,95.33
2022-11-14T04:57:31.226Z,95.34
2022-11-14T04:59:21.485Z,95.27
2022-11-14T05:01:13.925Z,95.54
2022-11-14T05:03:04.169Z,95.91
2022-11-14T05:04:54.171Z,95.67
2022-11-14T05:06:44.207Z,95.81
2022-11-14T05:08:34.571Z,96.27
2022-11-14T05:10:24.514Z,96.02
2022-11-14T05:12:14.650Z,96.04
2022-11-14T05:14:04.776Z,95.63
2022-11-14T05:15:59.578Z,95.70
2022-11-14T05:17:49.875Z,95.73
2022-11-14T05:19:40.001Z,95.61
2022-11-14T05:21:30.164Z,95.90
2022-11-14T05:23:22.600Z,95.91
2022-11-14T05:25:12.821Z,96.17
2022-11-14T05:27:03.034Z,96.55
2022-11-14T05:28:53.229Z,95.86
2022-11-14T05:30:43.373Z,96.27
2022-11-14T05:32:33.536Z,95.96
2022-11-14T05:34:24.140Z,96.15
2022-11-14T05:36:15.906Z,96.02
2022-11-14T05:38:06.173Z,96.50
2022-11-14T05:39:56.241Z,96.43
2022-11-14T05:41:46.551Z,96.24
2022-11-14T05:43:37.802Z,96.06
2022-11-14T05:45:28.180Z,96.14
2022-11-14T05:47:18.527Z,96.01
2022-11-14T05:49:08.589Z,96.52
2022-11-14T05:51:00.673Z,95.99
2022-11-14T05:52:50.747Z,96.06
2022-11-14T05:54:40.702Z,96.07
2022-11-14T05:56:30.756Z,95.28
2022-11-14T05:58:21.911Z,95.22
2022-11-14T06:00:12.722Z,95.54
2022-11-14T06:02:03.170Z,95.77
2022-11-14T06:03:53.750Z,95.37
2022-11-14T06:05:43.960Z,95.19
2022-11-14T06:07:34.266Z,95.36
2022-11-14T06:09:24.702Z,95.21
2022-11-14T06:11:18.623Z,94.89
2022-11-14T06:13:08.658Z,95.18
2022-11-14T06:14:59.937Z,95.17
2022-11-14T06:16:50.646Z,95.06
2022-11-14T06:18:41.220Z,95.30
2022-11-14T06:20:31.326Z,95.21
2022-11-14T06:22:21.452Z,95.19
2022-11-14T06:24:11.839Z,95.21
2022-11-14T06:26:05.167Z,95.05
2022-11-14T06:27:55.306Z,95.13
2022-11-14T06:29:45.580Z,94.14
2022-11-14T06:31:35.719Z,95.01
2022-11-14T06:33:32.997Z,94.83
2022-11-14T06:35:23.001Z,94.31
2022-11-14T06:37:13.571Z,93.89
2022-11-14T06:39:03.977Z,93.51
2022-11-14T06:41:11.181Z,93.98
2022-11-14T06:43:01.402Z,93.96
2022-11-14T06:44:51.676Z,93.98
2022-11-14T06:46:41.619Z,93.30
2022-11-14T06:48:32.313Z,93.34
2022-11-14T06:50:22.661Z,93.43
2022-11-14T06:52:12.893Z,93.47
2022-11-14T06:54:03.037Z,93.30
2022-11-14T06:55:59.101Z,92.68
2022-11-14T06:57:53.663Z,92.96
2022-11-14T06:59:44.406Z,93.44
2022-11-14T07:01:34.777Z,93.81
2022-11-14T07:03:25.108Z,93.89
2022-11-14T07:05:15.237Z,93.70
2022-11-14T07:07:05.539Z,93.86
2022-11-14T07:08:57.486Z,94.05
2022-11-14T07:10:47.631Z,93.67
2022-11-14T07:12:37.694Z,93.80
2022-11-14T07:14:28.977Z,93.09
2022-11-14T07:16:20.398Z,93.22
2022-11-14T07:18:10.707Z,93.23
2022-11-14T07:20:00.872Z,93.55
2022-11-14T07:21:51.132Z,92.62
2022-11-14T07:23:41.779Z,92.65
2022-11-14T07:25:32.132Z,92.28
2022-11-14T07:27:22.004Z,92.29
2022-11-14T07:29:12.213Z,92.68
2022-11-14T07:31:07.845Z,92.64
2022-11-14T07:32:58.261Z,93.04
2022-11-14T07:34:48.340Z,93.13
2022-11-14T07:36:38.571Z,93.17
2022-11-14T07:38:31.743Z,92.76
2022-11-14T07:40:22.081Z,92.22
2022-11-14T07:42:12.123Z,91.69
2022-11-14T07:44:02.187Z,92.13
2022-11-14T07:45:52.275Z,92.77
2022-11-14T07:47:42.444Z,92.92
2022-11-14T07:49:32.533Z,92.89
2022-11-14T07:51:22.814Z,93.03
2022-11-14T07:53:13.173Z,93.30
2022-11-14T07:55:03.710Z,93.35
2022-11-14T07:56:54.006Z,93.62
2022-11-14T07:58:44.372Z,94.02
2022-11-14T08:00:35.012Z,92.92
2022-11-14T08:02:25.352Z,93.54
2022-11-14T08:04:15.697Z,92.74
2022-11-14T08:06:08.824Z,92.72
2022-11-14T08:07:58.637Z,93.33
2022-11-14T08:09:48.740Z,93.09
2022-11-14T08:11:50.874Z,92.54
2022-11-14T08:13:40.940Z,93.03
2022-11-14T08:15:31.690Z,93.44
2022-11-14T08:17:22.592Z,93.52
2022-11-14T08:19:12.702Z,93.67
2022-11-14T08:21:06.131Z,93.66
2022-11-14T08:23:07.035Z,93.69
2022-11-14T08:24:57.693Z,93.78
2022-11-14T08:26:47.697Z,93.79
2022-11-14T08:28:37.792Z,94.19
2022-11-14T08:30:28.889Z,93.94
2022-11-14T08:32:19.386Z,94.16
2022-11-14T08:34:09.895Z,94.41
2022-11-14T08:36:03.895Z,94.51
2022-11-14T08:37:53.804Z,94.59
2022-11-14T08:39:44.118Z,94.24
2022-11-14T08:41:34.112Z,94.68
2022-11-14T08:43:24.065Z,94.51
2022-11-14T08:45:14.394Z,95.25
2022-11-14T08:47:04.675Z,95.19
2022-11-14T08:48:54.886Z,95.21
2022-11-14T08:50:45.130Z,94.92
2022-11-14T08:52:35.122Z,95.02
2022-11-14T08:54:25.485Z,95.27
2022-11-14T08:56:15.472Z,95.28
2022-11-14T08:58:05.925Z,95.15
2022-11-14T08:59:56.053Z,95.08
2022-11-14T09:01:46.419Z,95.27
2022-11-14T09:03:36.941Z,95.35
2022-11-14T09:05:27.417Z,95.46
2022-11-14T09:07:17.731Z,95.58
2022-11-14T09:09:07.902Z,95.59
2022-11-14T09:11:05.222Z,95.99
2022-11-14T09:13:00.656Z,95.34
2022-11-14T09:14:51.082Z,95.60
2022-11-14T09:16:41.174Z,95.82
2022-11-14T09:18:31.971Z,95.28
2022-11-14T09:20:31.701Z,94.93
2022-11-14T09:22:24.278Z,94.86
2022-11-14T09:24:14.386Z,94.90
2022-11-14T09:26:09.793Z,94.61
2022-11-14T09:28:05.031Z,94.33
2022-11-14T09:29:55.021Z,94.23
2022-11-14T09:31:45.332Z,94.01
2022-11-14T09:33:36.074Z,94.00
2022-11-14T09:35:26.258Z,94.38
2022-11-14T09:37:16.498Z,94.75
2022-11-14T09:39:06.815Z,94.79
2022-11-14T09:41:09.238Z,94.38
2022-11-14T09:43:14.047Z,94.75
2022-11-14T09:45:10.501Z,94.85
2022-11-14T09:47:16.638Z,94.41
2022-11-14T09:49:25.748Z,94.01
2022-11-14T09:51:20.366Z,93.99
2022-11-14T09:53:20.345Z,93.36
2022-11-14T09:55:14.210Z,93.53
2022-11-14T09:57:14.136Z,93.97
2022-11-14T09:59:08.518Z,93.84
2022-11-14T10:01:32.577Z,93.40
2022-11-14T10:03:30.195Z,93.02
2022-11-14T10:05:23.959Z,93.36
2022-11-14T10:07:32.538Z,93.56
2022-11-14T10:09:50.093Z,93.89
2022-11-14T10:11:52.069Z,92.93
2022-11-14T10:13:54.346Z,92.64
2022-11-14T10:15:58.415Z,93.11
2022-11-14T10:17:48.358Z,92.53
2022-11-14T10:19:47.776Z,92.37
2022-11-14T10:21:50.341Z,93.26
2022-11-14T10:24:00.843Z,93.28
2022-11-14T10:26:18.790Z,93.15
2022-11-14T10:28:08.684Z,93.39
2022-11-14T10:30:20.136Z,93.54
2022-11-14T10:32:35.233Z,93.13
2022-11-14T10:34:37.943Z,93.36
2022-11-14T10:36:48.631Z,93.27
2022-11-14T10:39:00.404Z,93.75
2022-11-14T10:40:54.458Z,93.42
2022-11-14T10:42:52.085Z,93.41
2022-11-14T10:45:04.395Z,92.54
2022-11-14T10:47:01.203Z,92.79
2022-11-14T10:48:55.107Z,92.91
2022-11-14T10:50:59.651Z,93.12
2022-11-14T10:52:56.163Z,92.66
2022-11-14T10:54:55.003Z,91.75
2022-11-14T10:56:48.233Z,91.52
2022-11-14T10:58:48.349Z,91.51
2022-11-14T11:00:38.716Z,91.87
2022-11-14T11:02:48.069Z,92.38
2022-11-14T11:04:40.402Z,92.63
2022-11-14T11:06:30.678Z,92.41
2022-11-14T11:08:44.555Z,92.63
2022-11-14T11:11:00.248Z,92.89
2022-11-14T11:12:52.762Z,93.44
2022-11-14T11:14:43.895Z,93.63
2022-11-14T11:16:34.114Z,93.30
2022-11-14T11:18:26.843Z,94.18
2022-11-14T11:20:26.629Z,93.97
2022-11-14T11:22:27.160Z,94.49
2022-11-14T11:24:34.312Z,94.44
2022-11-14T11:26:32.757Z,93.89
2022-11-14T11:28:22.892Z,94.41
2022-11-14T11:30:23.174Z,94.78
2022-11-14T11:32:25.970Z,94.76
2022-11-14T11:34:26.697Z,94.64
2022-11-14T11:36:19.501Z,94.66
2022-11-14T11:38:15.638Z,94.95
2022-11-14T11:40:12.155Z,95.07
2022-11-14T11:42:10.167Z,95.06
2022-11-14T11:44:03.817Z,95.02
2022-11-14T11:45:56.317Z,94.74
2022-11-14T11:48:00.967Z,94.70
2022-11-14T11:49:54.626Z,94.59
2022-11-14T11:51:46.452Z,94.90
2022-11-14T11:53:55.884Z,94.62
2022-11-14T11:55:53.368Z,93.78
2022-11-14T11:58:02.975Z,93.57
2022-11-14T12:00:02.715Z,93.04
2022-11-14T12:01:53.037Z,92.74
2022-11-14T12:03:52.409Z,92.73
2022-11-14T12:06:04.619Z,92.63
2022-11-14T12:08:04.693Z,91.76
2022-11-14T12:10:10.320Z,91.93
2022-11-14T12:12:08.123Z,92.46
2022-11-14T12:14:07.389Z,91.93
2022-11-14T12:16:12.699Z,91.82
2022-11-14T12:18:18.700Z,92.14
2022-11-14T12:20:20.471Z,91.80
2022-11-14T12:22:21.044Z,91.76
2022-11-14T12:24:40.465Z,91.65
2022-11-14T12:27:11.320Z,92.43
2022-11-14T12:29:25.349Z,92.42
2022-11-14T12:31:19.466Z,92.86
2022-11-14T12:33:15.587Z,92.27
2022-11-14T12:35:13.855Z,91.24
2022-11-14T12:37:18.585Z,90.55
2022-11-14T12:39:23.829Z,89.61
2022-11-14T12:41:26.272Z,89.90
2022-11-14T12:43:40.124Z,89.64
2022-11-14T12:45:36.115Z,89.84
2022-11-14T12:47:28.300Z,89.30
2022-11-14T12:49:37.051Z,88.85
2022-11-14T12:51:30.006Z,89.06
2022-11-14T12:53:39.345Z,88.42
2022-11-14T12:55:29.251Z,88.17
2022-11-14T12:57:49.929Z,88.84
2022-11-14T12:59:52.307Z,88.31
2022-11-14T13:01:53.884Z,87.91
2022-11-14T13:04:03.036Z,87.58
2022-11-14T13:06:17.478Z,86.55
2022-11-14T13:08:24.822Z,87.91
2022-11-14T13:10:38.771Z,87.39
2022-11-14T13:12:49.086Z,87.88
2022-11-14T13:15:09.409Z,87.85
2022-11-14T13:17:29.461Z,87.97
2022-11-14T13:19:40.152Z,87.42
2022-11-14T13:21:46.830Z,86.41
2022-11-14T13:23:43.015Z,86.26
2022-11-14T13:25:33.051Z,84.13
2022-11-14T13:27:45.256Z,82.23
2022-11-14T13:29:36.217Z,81.22
2022-11-14T13:31:44.194Z,78.43
2022-11-14T13:33:43.752Z,79.87
2022-11-14T13:35:39.183Z,76.33
2022-11-14T13:37:41.424Z,74.84
2022-11-14T13:39:45.855Z,70.65
2022-11-14T13:41:47.432Z,69.63
2022-11-14T13:44:05.427Z,73.09
2022-11-14T13:46:07.299Z,73.34
2022-11-14T13:48:12.978Z,74.18
2022-11-14T13:50:26.602Z,73.01
2022-11-14T13:52:17.055Z,72.91
2022-11-14T13:54:18.036Z,71.25
2022-11-14T13:56:22.373Z,70.50
2022-11-14T13:58:22.765Z,68.94
2022-11-14T14:00:19.972Z,70.99
2022-11-14T14:02:11.260Z,73.49
2022-11-14T14:04:13.252Z,75.00
2022-11-14T14:06:31.284Z,74.26
2022-11-14T14:08:46.678Z,72.67
2022-11-14T14:10:54.141Z,74.17
2022-11-14T14:13:06.949Z,73.51
2022-11-14T14:15:21.424Z,74.35
2022-11-14T14:17:22.033Z,72.83
2022-11-14T14:19:29.112Z,73.93
2022-11-14T14:21:19.135Z,72.95
2022-11-14T14:23:38.933Z,74.75
2022-11-14T14:25:45.738Z,75.83
2022-11-14T14:27:56.977Z,74.56
2022-11-14T14:30:03.167Z,74.19
2022-11-14T14:31:53.550Z,72.89
2022-11-14T14:33:48.443Z,73.42
2022-11-14T14:35:40.849Z,73.72
2022-11-14T14:37:32.411Z,71.73
2022-11-14T14:39:27.374Z,72.47
2022-11-14T14:41:19.964Z,73.52
2022-11-14T14:43:20.398Z,74.00
2022-11-14T14:45:19.830Z,75.15
2022-11-14T14:47:17.710Z,75.32
2022-11-14T14:49:08.101Z,74.18
2022-11-14T14:50:59.979Z,75.12
2022-11-14T14:52:58.453Z,75.48
2022-11-14T14:54:56.557Z,75.72
2022-11-14T14:57:02.543Z,76.97
2022-11-14T14:58:52.833Z,76.86
2022-11-14T15:00:53.187Z,77.67
2022-11-14T15:02:43.874Z,77.93
2022-11-14T15:04:38.353Z,78.03
2022-11-14T15:06:39.701Z,78.77
2022-11-14T15:08:34.788Z,79.17
2022-11-14T15:10:31.406Z,76.44
2022-11-14T15:12:24.121Z,77.70
2022-11-14T15:14:18.287Z,79.18
2022-11-14T15:16:09.726Z,79.31
2022-11-14T15:18:05.693Z,77.76
2022-11-14T15:19:55.717Z,78.25
2022-11-14T15:21:56.864Z,78.13
2022-11-14T15:23:46.741Z,79.29
2022-11-14T15:25:37.578Z,79.05
2022-11-14T15:27:27.784Z,79.84
2022-11-14T15:29:19.636Z,80.35
2022-11-14T15:31:18.906Z,80.63
2022-11-14T15:33:44.512Z,82.21
2022-11-14T15:35:36.728Z,82.06
2022-11-14T15:37:28.112Z,82.95
2022-11-14T15:39:27.773Z,83.00
2022-11-14T15:41:24.165Z,83.60
2022-11-14T15:43:36.768Z,83.83
2022-11-14T15:45:40.071Z,83.64
2022-11-14T15:47:30.022Z,83.09
2022-11-14T15:49:23.582Z,83.69
2022-11-14T15:51:13.762Z,84.32
2022-11-14T15:53:07.273Z,82.51
2022-11-14T15:54:57.647Z,83.35
2022-11-14T15:56:47.917Z,83.87
2022-11-14T15:58:38.205Z,84.23
2022-11-14T16:00:28.777Z,84.73
2022-11-14T16:02:28.235Z,84.76
2022-11-14T16:04:24.759Z,84.33
2022-11-14T16:06:14.846Z,83.58
2022-11-14T16:08:05.508Z,83.88
2022-11-14T16:09:55.697Z,83.57
2022-11-14T16:11:48.759Z,83.68
2022-11-14T16:13:39.409Z,84.07
2022-11-14T16:15:29.964Z,83.39
2022-11-14T16:17:20.022Z,84.41
2022-11-14T16:19:14.110Z,84.55
2022-11-14T16:21:04.238Z,84.65
2022-11-14T16:22:56.710Z,84.88
2022-11-14T16:24:47.298Z,85.04
2022-11-14T16:26:38.386Z,83.44
2022-11-14T16:28:29.067Z,84.39
2022-11-14T16:30:21.367Z,84.52
2022-11-14T16:32:11.761Z,85.53
2022-11-14T16:34:02.198Z,85.06
2022-11-14T16:35:52.567Z,84.67
2022-11-14T16:37:42.704Z,84.71
2022-11-14T16:39:33.116Z,85.55
2022-11-14T16:41:23.323Z,85.92
2022-11-14T16:43:14.471Z,85.94
2022-11-14T16:45:04.936Z,86.46
2022-11-14T16:46:55.400Z,87.08
2022-11-14T16:48:45.539Z,86.62
2022-11-14T16:50:37.938Z,86.83
2022-11-14T16:52:28.058Z,87.74
2022-11-14T16:54:21.448Z,86.86
2022-11-14T16:56:12.985Z,87.03
2022-11-14T16:58:03.178Z,87.70
2022-11-14T16:59:53.406Z,88.09
2022-11-14T17:01:43.814Z,87.71
2022-11-14T17:03:34.413Z,88.42
2022-11-14T17:05:24.407Z,88.04
2022-11-14T17:07:16.718Z,88.49
2022-11-14T17:09:13.847Z,88.61
2022-11-14T17:11:09.369Z,88.43
2022-11-14T17:12:59.308Z,89.05
2022-11-14T17:14:49.467Z,89.02
2022-11-14T17:16:39.669Z,89.00
2022-11-14T17:18:35.433Z,88.79
2022-11-14T17:20:28.574Z,88.86
2022-11-14T17:22:22.273Z,88.68
2022-11-14T17:24:12.351Z,88.66
2022-11-14T17:26:03.437Z,88.53
2022-11-14T17:27:53.318Z,88.69
2022-11-14T17:29:43.983Z,88.83
2022-11-14T17:31:37.961Z,88.93
2022-11-14T17:33:30.069Z,88.89
2022-11-14T17:35:20.487Z,88.69
2022-11-14T17:37:10.858Z,88.83
2022-11-14T17:39:01.386Z,89.36
2022-11-14T17:40:58.021Z,89.10
2022-11-14T17:42:48.186Z,89.18
2022-11-14T17:44:38.428Z,89.59
2022-11-14T17:46:29.815Z,89.36
2022-11-14T17:48:20.346Z,89.75
2022-11-14T17:50:10.614Z,89.90
2022-11-14T17:52:00.944Z,89.83
2022-11-14T17:53:51.881Z,90.05
2022-11-14T17:55:41.976Z,89.64
2022-11-14T17:57:32.297Z,89.89
2022-11-14T17:59:22.426Z,89.95
2022-11-14T18:01:17.898Z,89.62
2022-11-14T18:03:08.915Z,90.00
2022-11-14T18:04:59.786Z,89.98
2022-11-14T18:06:50.430Z,90.25
2022-11-14T18:08:41.651Z,90.24
2022-11-14T18:10:32.130Z,90.43
2022-11-14T18:12:22.370Z,90.49
2022-11-14T18:14:14.862Z,90.30
2022-11-14T18:16:08.374Z,90.53
2022-11-14T18:17:58.963Z,90.52
2022-11-14T18:19:49.755Z,90.67
2022-11-14T18:21:43.200Z,91.03
2022-11-14T18:23:33.607Z,90.30
2022-11-14T18:25:24.523Z,90.01
2022-11-14T18:27:15.469Z,90.22
2022-11-14T18:29:06.562Z,90.57
2022-11-14T18:30:57.297Z,91.04
2022-11-14T18:32:47.930Z,90.98
2022-11-14T18:34:38.712Z,91.70
2022-11-14T18:36:29.366Z,91.31
2022-11-14T18:38:19.756Z,91.86
2022-11-14T18:40:16.417Z,91.78
2022-11-14T18:42:07.068Z,91.83
2022-11-14T18:43:58.637Z,91.77
2022-11-14T18:45:49.402Z,91.92
2022-11-14T18:47:40.150Z,91.78
2022-11-14T18:49:31.057Z,91.96
2022-11-14T18:51:24.567Z,91.54
2022-11-14T18:53:15.971Z,92.14
2022-11-14T18:55:08.409Z,91.68
2022-11-14T18:57:00.653Z,91.78
2022-11-14T18:58:58.093Z,91.91
2022-11-14T19:00:48.499Z,91.63
2022-11-14T19:02:39.179Z,91.66
2022-11-14T19:04:30.246Z,92.08
2022-11-14T19:06:21.238Z,91.67
2022-11-14T19:08:12.407Z,91.63
2022-11-14T19:10:03.643Z,91.98
2022-11-14T19:12:18.243Z,91.56
2022-11-14T19:14:08.957Z,91.52
2022-11-14T19:16:06.091Z,92.00
2022-11-14T19:17:57.504Z,92.58
2022-11-14T19:19:49.886Z,92.88
2022-11-14T19:21:41.500Z,92.95
2022-11-14T19:23:34.727Z,92.91
2022-11-14T19:25:26.174Z,93.20
2022-11-14T19:27:17.734Z,93.47
2022-11-14T19:29:10.649Z,93.04
2022-11-14T19:31:06.535Z,93.38
2022-11-14T19:32:57.329Z,93.92
2022-11-14T19:34:48.201Z,94.17
2022-11-14T19:36:58.942Z,94.29
2022-11-14T19:38:58.272Z,94.16
2022-11-14T19:40:51.678Z,93.94
2022-11-14T19:42:43.081Z,93.95
2022-11-14T19:44:34.226Z,94.10
2022-11-14T19:46:29.782Z,94.09
2022-11-14T19:48:20.936Z,94.25
2022-11-14T19:50:12.170Z,94.32
2022-11-14T19:52:02.718Z,94.70
2022-11-14T19:53:54.984Z,94.65
2022-11-14T19:55:45.851Z,94.69
2022-11-14T19:57:36.500Z,94.98
2022-11-14T19:59:28.983Z,94.82
2022-11-14T20:01:22.843Z,95.08
2022-11-14T20:03:14.972Z,94.69
2022-11-14T20:05:07.024Z,94.78
2022-11-14T20:06:58.389Z,94.87
2022-11-14T20:08:48.850Z,95.07
2022-11-14T20:10:48.027Z,94.81
2022-11-14T20:12:38.685Z,94.72
2022-11-14T20:14:29.777Z,95.03
2022-11-14T20:16:24.380Z,95.25
2022-11-14T20:18:15.143Z,95.62
2022-11-14T20:20:06.929Z,94.88
2022-11-14T20:21:58.765Z,94.91
2022-11-14T20:23:50.564Z,95.38
2022-11-14T20:25:41.636Z,95.52
2022-11-14T20:27:32.399Z,95.30
2022-11-14T20:29:23.238Z,95.74
2022-11-14T20:31:16.305Z,95.84
2022-11-14T20:33:09.684Z,95.45
2022-11-14T20:35:01.123Z,95.19
2022-11-14T20:39:02.870Z,95.64
2022-11-14T20:40:57.942Z,95.56
2022-11-14T20:42:49.455Z,95.61
2022-11-14T20:44:40.180Z,95.34
2022-11-14T20:46:30.980Z,95.00
2022-11-14T20:48:22.412Z,95.54
2022-11-14T20:50:13.604Z,95.38
2022-11-14T20:52:05.743Z,95.66
2022-11-14T20:53:56.763Z,95.33
2022-11-14T20:55:52.992Z,95.69
2022-11-14T20:57:43.770Z,95.44
2022-11-14T20:59:34.984Z,95.15
2022-11-14T21:01:25.187Z,95.30
2022-11-14T21:03:15.981Z,95.11
2022-11-14T21:05:07.095Z,95.51
2022-11-14T21:06:58.491Z,95.34
2022-11-14T21:08:49.202Z,95.17
2022-11-14T21:10:48.748Z,95.33
2022-11-14T21:12:40.105Z,95.14
2022-11-14T21:14:31.217Z,95.44
2022-11-14T21:16:23.833Z,95.14
2022-11-14T21:18:14.386Z,95.64
2022-11-14T21:20:05.622Z,95.68
2022-11-14T21:21:56.449Z,95.24
2022-11-14T21:23:47.982Z,95.54
2022-11-14T21:25:38.930Z,95.54
2022-11-14T21:27:29.781Z,95.39
2022-11-14T21:29:20.536Z,95.78
2022-11-14T21:31:23.149Z,95.57
2022-11-14T21:33:14.889Z,95.43
2022-11-14T21:35:09.659Z,95.62
2022-11-14T21:37:00.641Z,95.26
2022-11-14T21:38:51.297Z,95.69
2022-11-14T21:40:42.134Z,95.80
2022-11-14T21:42:32.783Z,95.68
2022-11-14T21:44:24.600Z,95.71
2022-11-14T21:46:18.492Z,95.87
2022-11-14T21:48:10.560Z,96.09
2022-11-14T21:50:01.567Z,95.82
2022-11-14T21:51:53.254Z,96.10
2022-11-14T21:53:45.381Z,95.87
2022-11-14T21:55:35.416Z,95.58
2022-11-14T21:57:25.592Z,95.62
2022-11-14T21:59:18.624Z,95.67
2022-11-14T22:01:11.454Z,95.15
2022-11-14T22:03:20.175Z,95.50
2022-11-14T22:05:10.440Z,95.87
2022-11-14T22:07:06.272Z,95.64
2022-11-14T22:08:56.539Z,95.58
2022-11-14T22:10:46.871Z,95.36
2022-11-14T22:12:37.108Z,95.94
2022-11-14T22:14:29.457Z,95.54
2022-11-14T22:16:20.818Z,95.53
2022-11-14T22:18:11.050Z,95.74
2022-11-14T22:20:01.191Z,95.69
2022-11-14T22:21:51.523Z,95.98
2022-11-14T22:23:43.853Z,95.57
2022-11-14T22:25:34.126Z,96.15
2022-11-14T22:27:24.410Z,96.06
2022-11-14T22:29:14.865Z,96.24
2022-11-14T22:31:31.790Z,96.11
2022-11-14T22:33:21.959Z,96.34
2022-11-14T22:35:12.141Z,95.93
2022-11-14T22:37:02.550Z,95.75
2022-11-14T22:38:54.726Z,96.35
2022-11-14T22:40:44.860Z,96.22
2022-11-14T22:42:35.112Z,96.18
2022-11-14T22:44:25.377Z,95.50
2022-11-14T22:46:18.397Z,95.69
2022-11-14T22:48:08.622Z,96.05
2022-11-14T22:49:58.938Z,95.87
2022-11-14T22:51:49.167Z,95.79
2022-11-14T22:53:40.293Z,95.81
2022-11-14T22:55:30.289Z,96.19
2022-11-14T22:57:20.432Z,95.93
2022-11-14T22:59:10.601Z,95.66
2022-11-14T23:01:01.472Z,95.76
2022-11-14T23:02:54.942Z,96.02
2022-11-14T23:04:45.095Z,95.76
2022-11-14T23:06:35.649Z,95.56
2022-11-14T23:08:25.638Z,95.53
2022-11-14T23:10:15.891Z,95.36
2022-11-14T23:12:06.230Z,95.67
2022-11-14T23:13:58.497Z,95.43
2022-11-14T23:15:48.769Z,95.43
2022-11-14T23:17:38.730Z,95.22
2022-11-14T23:19:28.803Z,95.26
2022-11-14T23:21:21.668Z,94.80
2022-11-14T23:23:14.432Z,94.53
2022-11-14T23:25:04.580Z,95.07
2022-11-14T23:26:54.938Z,94.63
2022-11-14T23:28:45.796Z,94.92
2022-11-14T23:30:36.237Z,94.89
2022-11-14T23:32:29.483Z,95.21
2022-11-14T23:34:19.413Z,94.79
2022-11-14T23:36:09.535Z,94.82
2022-11-14T23:38:04.843Z,94.67
2022-11-14T23:39:54.834Z,95.16
2022-11-14T23:41:45.119Z,95.16
2022-11-14T23:43:35.444Z,95.24
2022-11-14T23:45:25.640Z,95.70
2022-11-14T23:47:15.939Z,95.13
2022-11-14T23:49:06.119Z,95.40
2022-11-14T23:50:56.635Z,95.13
2022-11-14T23:52:46.775Z,95.15
2022-11-14T23:54:37.002Z,94.91
2022-11-14T23:56:27.240Z,95.38
2022-11-14T23:58:17.514Z,95.45
